Berga II — 7TQI — position and weather

sailwx.info

Track history (hours):
 
Tides and Currents Weather Stations Pressure Air Temp Water Temp Dewpoint Dewpoint Depression Visibility Wind Speed Wind Dir Waves Ship Positions

Berga II

Last reported at 2018-Jul-12 02:35 UTC. Time now 2018-Jul-21 15:39 UTC.
Position N 38°12' E 000°27'.
Warning: this ship's position is 9 days out of date.

Length 174 m; draft 9.5 m.

Type: Ship (hazmat cat B). MMSI: 605076051.

Date/timePositionNaut miles runAvg speedWind from/ knotsBaromVisibWave heightAir tempDewpointWater temp
2018-Jul-12 02:35N 38°12' E 000°27'214.3
2018-Jul-12 02:27N 38°10' E 000°27'3014.8
2018-Jul-12 00:27N 37°42' E 000°18'715.2
2018-Jul-12 00:01N 37°35' E 000°16'815.3
2018-Jul-11 23:30N 37°27' E 000°14'815.4
2018-Jul-11 23:00N 37°20' E 000°12'815.5
2018-Jul-11 22:31N 37°13' E 000°10'1415.2
2018-Jul-11 21:36N 36°59' E 000°06'114.6
2018-Jul-11 21:30N 36°58' E 000°06'714.3
2018-Jul-11 21:00N 36°51' E 000°05'510.6
2018-Jul-11 20:30N 36°46' E 000°03'2 3.9
2018-Jul-11 20:00N 36°44' E 000°02'3 6.2
2018-Jul-11 19:30N 36°41' E 000°01'5 8.9
2018-Jul-11 18:59N 36°36' E 000°00'5 9.4
2018-Jul-11 18:30N 36°32' W 000°01'5 9.3
2018-Jul-11 17:56N 36°27' W 000°03'512.2
2018-Jul-11 17:30N 36°22' W 000°04'714.6
2018-Jul-11 17:00N 36°14' W 000°06'713.9
2018-Jul-11 16:31N 36°08' W 000°07'712.8
2018-Jul-11 15:59N 36°01' W 000°10'611.9
2018-Jul-11 15:31N 35°56' W 000°12'5 9.0
2018-Jul-11 15:00N 35°52' W 000°14'3 0.1
2018-Jul-10 00:25N 35°49' W 000°15'0 0.0
2018-Jul-09 20:44N 35°49' W 000°15'0 0.1
2018-Jul-09 20:29N 35°49' W 000°15'1 2.7
2018-Jul-09 19:58N 35°50' W 000°14'2 3.8
2018-Jul-09 19:29N 35°52' W 000°16'0 0.3
2018-Jul-09 18:56N 35°52' W 000°16'0 0.0
2018-Jul-09 18:26N 35°52' W 000°16'0 0.0
2018-Jul-09 17:50N 35°52' W 000°16'0 0.0
2018-Jul-09 17:26N 35°52' W 000°16'  
2018-Jul-07 04:04N 35°52' W 000°16'0 0.0
2018-Jul-06 21:16N 35°52' W 000°16'0 0.1
2018-Jul-06 20:53N 35°52' W 000°16'0 0.2
2018-Jul-06 20:28N 35°52' W 000°15'0 0.1
2018-Jul-06 19:22N 35°52' W 000°16'0 0.1
2018-Jul-06 18:52N 35°52' W 000°16'0 0.0
2018-Jul-06 11:28N 35°52' W 000°16'0 0.0
2018-Jul-06 10:46N 35°52' W 000°16'0 0.1
2018-Jul-06 10:28N 35°52' W 000°16'0 0.0
2018-Jul-06 09:58N 35°52' W 000°16'0 0.0
2018-Jul-06 03:10N 35°52' W 000°16'0 0.0
2018-Jul-06 02:58N 35°52' W 000°16'0 0.0
2018-Jul-06 02:22N 35°52' W 000°16'0 0.1
2018-Jul-06 01:58N 35°52' W 000°16'0 0.1
2018-Jul-06 01:22N 35°52' W 000°16'0 0.0
2018-Jul-06 00:52N 35°52' W 000°16'0 0.0
2018-Jul-06 00:10N 35°52' W 000°16'0 0.0
2018-Jul-05 23:58N 35°52' W 000°16'0 0.0
2018-Jul-05 18:34N 35°52' W 000°15'0 0.0
2018-Jul-05 17:22N 35°52' W 000°15'0 0.0
2018-Jul-05 16:58N 35°52' W 000°15'0 0.0
2018-Jul-05 16:28N 35°52' W 000°15'0 0.0
2018-Jul-05 15:40N 35°52' W 000°15'0 0.1
2018-Jul-05 15:28N 35°52' W 000°15'0 0.0
2018-Jul-05 12:34N 35°52' W 000°15'0 0.0
2018-Jul-05 12:16N 35°52' W 000°15'0 0.1
2018-Jul-05 11:58N 35°52' W 000°15'0 0.0
2018-Jul-04 15:52N 35°52' W 000°15'0 0.1
2018-Jul-04 15:25N 35°52' W 000°15'0 0.0
2018-Jul-04 14:55N 35°52' W 000°15'0 0.0
2018-Jul-04 14:25N 35°52' W 000°15'0 0.0
2018-Jul-04 13:16N 35°52' W 000°15'0 0.0
2018-Jul-04 12:43N 35°52' W 000°15'0 0.0
2018-Jul-04 11:22N 35°52' W 000°15'0 0.1
2018-Jul-04 10:58N 35°52' W 000°15'0 0.0
2018-Jul-04 02:16N 35°52' W 000°16'0 0.0
2018-Jul-03 22:58N 35°52' W 000°16'0 0.0
2018-Jul-03 20:52N 35°52' W 000°16'0 0.1
2018-Jul-03 19:16N 35°52' W 000°15'0 0.1
2018-Jul-03 18:52N 35°52' W 000°15'0 0.0
2018-Jul-03 15:52N 35°52' W 000°15'0 0.0
2018-Jul-03 15:19N 35°52' W 000°15'0 0.0
2018-Jul-03 14:58N 35°52' W 000°15'0 0.1
2018-Jul-03 14:28N 35°52' W 000°15'0 0.1
2018-Jul-03 13:58N 35°52' W 000°15'0 0.0
2018-Jul-03 12:10N 35°52' W 000°15'0 0.4
2018-Jul-03 11:58N 35°52' W 000°15'0 0.0
2018-Jul-03 11:22N 35°52' W 000°15'0 0.1
2018-Jul-03 10:58N 35°52' W 000°15'0 0.0
2018-Jul-03 05:40N 35°52' W 000°15'0 0.0
2018-Jul-03 05:16N 35°52' W 000°15'0 0.1
2018-Jul-03 04:46N 35°52' W 000°15'0 0.1
2018-Jul-03 04:28N 35°52' W 000°15'0 0.0
2018-Jul-03 03:22N 35°52' W 000°15'0 0.0
2018-Jul-03 02:58N 35°52' W 000°15'0 0.0
2018-Jul-02 17:16N 35°52' W 000°15'0 0.0
2018-Jul-02 16:52N 35°52' W 000°15'0 0.0
2018-Jul-02 15:22N 35°52' W 000°15'0 0.0
2018-Jul-02 14:58N 35°52' W 000°15'0 0.0
2018-Jul-02 14:28N 35°52' W 000°15'0 0.0
2018-Jul-02 13:52N 35°52' W 000°15'0 0.0
2018-Jul-02 13:28N 35°52' W 000°15'0 0.0
2018-Jul-02 12:58N 35°52' W 000°15'0 0.0
2018-Jul-02 12:28N 35°52' W 000°15'0 0.0
2018-Jul-02 11:58N 35°52' W 000°15'0 0.0
2018-Jul-02 11:22N 35°52' W 000°15'0 0.0
2018-Jul-02 06:22N 35°52' W 000°15'0 0.0
2018-Jul-02 05:10N 35°52' W 000°15'0 0.0
2018-Jul-02 04:52N 35°52' W 000°15'0 0.0
2018-Jul-02 04:28N 35°52' W 000°15'0 0.0
2018-Jul-02 03:58N 35°52' W 000°15'0 0.0
2018-Jul-02 03:28N 35°52' W 000°15'  
Track history (hours):
 
Tides and Currents Weather Stations Pressure Air Temp Water Temp Dewpoint Dewpoint Depression Visibility Wind Speed Wind Dir Waves Ship Positions

Berga II

Last reported at 2018-Jul-12 02:35 UTC. Time now 2018-Jul-21 15:39 UTC.
Position N 38°12' E 000°27'.
Warning: this ship's position is 9 days out of date.

Length 174 m; draft 9.5 m.

Type: Ship (hazmat cat B). MMSI: 605076051.

Date/timePositionNaut miles runAvg speedWind from/ knotsBaromVisibWave heightAir tempDewpointWater temp
2018-Jul-12 02:35N 38°12' E 000°27'214.3
2018-Jul-12 02:27N 38°10' E 000°27'3014.8
2018-Jul-12 00:27N 37°42' E 000°18'715.2
2018-Jul-12 00:01N 37°35' E 000°16'815.3
2018-Jul-11 23:30N 37°27' E 000°14'815.4
2018-Jul-11 23:00N 37°20' E 000°12'815.5
2018-Jul-11 22:31N 37°13' E 000°10'1415.2
2018-Jul-11 21:36N 36°59' E 000°06'114.6
2018-Jul-11 21:30N 36°58' E 000°06'714.3
2018-Jul-11 21:00N 36°51' E 000°05'510.6
2018-Jul-11 20:30N 36°46' E 000°03'2 3.9
2018-Jul-11 20:00N 36°44' E 000°02'3 6.2
2018-Jul-11 19:30N 36°41' E 000°01'5 8.9
2018-Jul-11 18:59N 36°36' E 000°00'5 9.4
2018-Jul-11 18:30N 36°32' W 000°01'5 9.3
2018-Jul-11 17:56N 36°27' W 000°03'512.2
2018-Jul-11 17:30N 36°22' W 000°04'714.6
2018-Jul-11 17:00N 36°14' W 000°06'713.9
2018-Jul-11 16:31N 36°08' W 000°07'712.8
2018-Jul-11 15:59N 36°01' W 000°10'611.9
2018-Jul-11 15:31N 35°56' W 000°12'5 9.0
2018-Jul-11 15:00N 35°52' W 000°14'3 0.1
2018-Jul-10 00:25N 35°49' W 000°15'0 0.0
2018-Jul-09 20:44N 35°49' W 000°15'0 0.1
2018-Jul-09 20:29N 35°49' W 000°15'1 2.7
2018-Jul-09 19:58N 35°50' W 000°14'2 3.8
2018-Jul-09 19:29N 35°52' W 000°16'0 0.3
2018-Jul-09 18:56N 35°52' W 000°16'0 0.0
2018-Jul-09 18:26N 35°52' W 000°16'0 0.0
2018-Jul-09 17:50N 35°52' W 000°16'0 0.0
2018-Jul-09 17:26N 35°52' W 000°16'  
2018-Jul-07 04:04N 35°52' W 000°16'0 0.0
2018-Jul-06 21:16N 35°52' W 000°16'0 0.1
2018-Jul-06 20:53N 35°52' W 000°16'0 0.2
2018-Jul-06 20:28N 35°52' W 000°15'0 0.1
2018-Jul-06 19:22N 35°52' W 000°16'0 0.1
2018-Jul-06 18:52N 35°52' W 000°16'0 0.0
2018-Jul-06 11:28N 35°52' W 000°16'0 0.0
2018-Jul-06 10:46N 35°52' W 000°16'0 0.1
2018-Jul-06 10:28N 35°52' W 000°16'0 0.0
2018-Jul-06 09:58N 35°52' W 000°16'0 0.0
2018-Jul-06 03:10N 35°52' W 000°16'0 0.0
2018-Jul-06 02:58N 35°52' W 000°16'0 0.0
2018-Jul-06 02:22N 35°52' W 000°16'0 0.1
2018-Jul-06 01:58N 35°52' W 000°16'0 0.1
2018-Jul-06 01:22N 35°52' W 000°16'0 0.0
2018-Jul-06 00:52N 35°52' W 000°16'0 0.0
2018-Jul-06 00:10N 35°52' W 000°16'0 0.0
2018-Jul-05 23:58N 35°52' W 000°16'0 0.0
2018-Jul-05 18:34N 35°52' W 000°15'0 0.0
2018-Jul-05 17:22N 35°52' W 000°15'0 0.0
2018-Jul-05 16:58N 35°52' W 000°15'0 0.0
2018-Jul-05 16:28N 35°52' W 000°15'0 0.0
2018-Jul-05 15:40N 35°52' W 000°15'0 0.1
2018-Jul-05 15:28N 35°52' W 000°15'0 0.0
2018-Jul-05 12:34N 35°52' W 000°15'0 0.0
2018-Jul-05 12:16N 35°52' W 000°15'0 0.1
2018-Jul-05 11:58N 35°52' W 000°15'0 0.0
2018-Jul-04 15:52N 35°52' W 000°15'0 0.1
2018-Jul-04 15:25N 35°52' W 000°15'0 0.0
2018-Jul-04 14:55N 35°52' W 000°15'0 0.0
2018-Jul-04 14:25N 35°52' W 000°15'0 0.0
2018-Jul-04 13:16N 35°52' W 000°15'0 0.0
2018-Jul-04 12:43N 35°52' W 000°15'0 0.0
2018-Jul-04 11:22N 35°52' W 000°15'0 0.1
2018-Jul-04 10:58N 35°52' W 000°15'0 0.0
2018-Jul-04 02:16N 35°52' W 000°16'0 0.0
2018-Jul-03 22:58N 35°52' W 000°16'0 0.0
2018-Jul-03 20:52N 35°52' W 000°16'0 0.1
2018-Jul-03 19:16N 35°52' W 000°15'0 0.1
2018-Jul-03 18:52N 35°52' W 000°15'0 0.0
2018-Jul-03 15:52N 35°52' W 000°15'0 0.0
2018-Jul-03 15:19N 35°52' W 000°15'0 0.0
2018-Jul-03 14:58N 35°52' W 000°15'0 0.1
2018-Jul-03 14:28N 35°52' W 000°15'0 0.1
2018-Jul-03 13:58N 35°52' W 000°15'0 0.0
2018-Jul-03 12:10N 35°52' W 000°15'0 0.4
2018-Jul-03 11:58N 35°52' W 000°15'0 0.0
2018-Jul-03 11:22N 35°52' W 000°15'0 0.1
2018-Jul-03 10:58N 35°52' W 000°15'0 0.0
2018-Jul-03 05:40N 35°52' W 000°15'0 0.0
2018-Jul-03 05:16N 35°52' W 000°15'0 0.1
2018-Jul-03 04:46N 35°52' W 000°15'0 0.1
2018-Jul-03 04:28N 35°52' W 000°15'0 0.0
2018-Jul-03 03:22N 35°52' W 000°15'0 0.0
2018-Jul-03 02:58N 35°52' W 000°15'0 0.0
2018-Jul-02 17:16N 35°52' W 000°15'0 0.0
2018-Jul-02 16:52N 35°52' W 000°15'0 0.0
2018-Jul-02 15:22N 35°52' W 000°15'0 0.0
2018-Jul-02 14:58N 35°52' W 000°15'0 0.0
2018-Jul-02 14:28N 35°52' W 000°15'0 0.0
2018-Jul-02 13:52N 35°52' W 000°15'0 0.0
2018-Jul-02 13:28N 35°52' W 000°15'0 0.0
2018-Jul-02 12:58N 35°52' W 000°15'0 0.0
2018-Jul-02 12:28N 35°52' W 000°15'0 0.0
2018-Jul-02 11:58N 35°52' W 000°15'0 0.0
2018-Jul-02 11:22N 35°52' W 000°15'0 0.0
2018-Jul-02 06:22N 35°52' W 000°15'0 0.0
2018-Jul-02 05:10N 35°52' W 000°15'0 0.0
2018-Jul-02 04:52N 35°52' W 000°15'0 0.0
2018-Jul-02 04:28N 35°52' W 000°15'0 0.0
2018-Jul-02 03:58N 35°52' W 000°15'0 0.0
2018-Jul-02 03:28N 35°52' W 000°15'  

Dump ship's entire track history